Hauptseite
METAR-TAF:

METAR-TAF

Flughäfen :

Flughafen Harare International

Harare, Simbabwe

Breite: 17-55S, Länge: 031-08E, Höhe: 1479 m

Beobachtung

Neuester Wetterbericht von vor 52 Minuten, um 08:00 UTC
Wind 7 kt aus Nord/Nordost, variierte zwischen Nord/Nordwest und Ost/Nordost
Temperatur 23°C
Luftfeuchtigkeit 27%
Luftdruck 1027 hPa
Sichtweite 10 km oder mehr
keine Wolken unter 1500 m und keine Kumulonimbus oder Gewitterwolken

METAR: FVHA 170800Z 03007KT 340V060 CAVOK 23/03 Q1027 NOSIG

Zeit: 10:52 (08:52 UTC)

Prognose

Neuester Wetterbericht von vor 4 Stunden und 52 Minuten, um 04:00 UTC
Gültige Prognose vom 17 um 06 UTC bis 18 um 12 UTC
Wind 8 kt aus Ost/Nordost
Sichtweite 10 km oder mehr
keine Wolken unter 1500 m und keine Kumulonimbus oder Gewitterwolken

TAF: FVHA 170400Z 1706/1812 06008KT CAVOK

Wetterbeobachtungen und Prognosen von mehr als 4000 Flughäfen (METAR und TAF Bericht).

Die verfügbaren Stationen werden durch gelbe und rote Markierungen auf der Karte dargestellt.

Führen Sie die Maus auf sie, um den Namen der Station zu sehen.

Darauf klicken, um die Beobachtung von Wetterbeobachtungen und Prognosen zu sehen.

Um die Karte zu ändern : klicken Sie auf den grünen Tasten mit einem schwarzen Kreuz Zum Vergrößern, auf den grünen Button mit einem Gedankenstrich zu verkleinern, oder auf die grünen Pfeile für benachbarte Karten.


METAR-TAF: